Time;durP1;ratioP1;P1;durP2;ratioP2;P2;SDS_P1;SDS_P2;PMS_P1;PMS_P2;Temp;Humidity;BMP_temperature;BMP_pressure;BME280_temperature;BME280_humidity;BME280_pressure;Samples;Min_cycle;Max_cycle;Signal;HPM_P1;HPM_P2
2023/10/11 00:01:49;;;;;;;4.23;2.27;;;;;;;;;;6168138;23;20191;-83
2023/10/11 00:04:24;;;;;;;2.80;2.60;;;;;;;;;;6170024;23;20180;-84
2023/10/11 00:06:54;;;;;;;4.00;1.93;;;;;;;;;;6166978;23;20166;-84
2023/10/11 00:09:34;;;;;;;2.17;2.03;;;;;;;;;;6163360;23;20179;-83
2023/10/11 00:12:02;;;;;;;1.80;1.70;;;;;;;;;;6171277;23;20196;-84
2023/10/11 00:14:30;;;;;;;2.93;1.60;;;;;;;;;;6170271;23;20182;-83
2023/10/11 00:16:58;;;;;;;3.77;2.57;;;;;;;;;;6151302;23;20169;-84
2023/10/11 00:19:33;;;;;;;4.50;2.40;;;;;;;;;;6150290;23;20197;-83
2023/10/11 00:22:05;;;;;;;4.20;2.83;;;;;;;;;;6150291;23;20195;-83
2023/10/11 00:24:34;;;;;;;23.60;3.50;;;;;;;;;;6150240;23;20506;-82
2023/10/11 00:27:03;;;;;;;4.13;2.57;;;;;;;;;;6149975;23;20228;-83
2023/10/11 00:29:31;;;;;;;2.30;1.80;;;;;;;;;;6149238;23;20221;-83
2023/10/11 00:32:05;;;;;;;2.37;2.17;;;;;;;;;;6150744;23;20168;-83
2023/10/11 00:34:35;;;;;;;2.63;2.47;;;;;;;;;;6150154;23;20607;-84
2023/10/11 00:37:05;;;;;;;1.90;1.80;;;;;;;;;;6149161;23;20288;-84
2023/10/11 00:39:35;;;;;;;2.23;1.63;;;;;;;;;;6149756;23;20196;-84
2023/10/11 00:42:05;;;;;;;7.80;2.00;;;;;;;;;;6151233;23;20641;-85
2023/10/11 00:44:36;;;;;;;2.13;1.70;;;;;;;;;;6150980;23;20173;-84
2023/10/11 00:47:08;;;;;;;3.57;1.63;;;;;;;;;;6151670;23;20251;-84
2023/10/11 00:49:45;;;;;;;1.60;1.50;;;;;;;;;;6150299;23;20173;-84
2023/10/11 00:52:14;;;;;;;11.70;2.83;;;;;;;;;;6149220;23;20592;-84
2023/10/11 00:54:44;;;;;;;1.90;1.80;;;;;;;;;;6151481;23;20234;-86
2023/10/11 00:57:12;;;;;;;9.93;1.57;;;;;;;;;;6150860;23;20188;-83
2023/10/11 00:59:41;;;;;;;3.93;2.70;;;;;;;;;;6149081;23;20204;-84
2023/10/11 01:02:14;;;;;;;2.23;2.07;;;;;;;;;;6150925;23;20192;-84
2023/10/11 01:04:45;;;;;;;1.80;1.53;;;;;;;;;;6151174;23;20181;-84
2023/10/11 01:07:13;;;;;;;2.63;2.43;;;;;;;;;;6148529;23;20230;-84
2023/10/11 01:09:43;;;;;;;1.30;1.30;;;;;;;;;;6149570;23;20230;-84
2023/10/11 01:12:13;;;;;;;1.63;1.53;;;;;;;;;;6151250;23;20176;-84
2023/10/11 01:14:56;;;;;;;5.40;1.57;;;;;;;;;;6150212;23;20192;-85
2023/10/11 01:17:26;;;;;;;1.37;1.27;;;;;;;;;;6148581;23;20524;-84
2023/10/11 01:19:55;;;;;;;5.23;2.43;;;;;;;;;;6149808;23;20277;-83
2023/10/11 01:22:25;;;;;;;2.70;1.77;;;;;;;;;;6149238;23;20204;-84
2023/10/11 01:24:55;;;;;;;6.10;1.43;;;;;;;;;;6150016;23;20248;-85
2023/10/11 01:27:30;;;;;;;4.13;1.97;;;;;;;;;;6150246;23;20165;-85
2023/10/11 01:29:58;;;;;;;1.40;1.30;;;;;;;;;;6150163;23;20830;-84
2023/10/11 01:32:29;;;;;;;2.47;2.27;;;;;;;;;;6150180;23;20235;-84
2023/10/11 01:35:01;;;;;;;3.30;1.70;;;;;;;;;;6150448;23;20501;-84
2023/10/11 01:37:36;;;;;;;3.03;1.93;;;;;;;;;;6149002;23;20272;-84
2023/10/11 01:40:09;;;;;;;3.30;2.23;;;;;;;;;;6149748;23;20211;-85
2023/10/11 01:42:41;;;;;;;1.33;1.33;;;;;;;;;;6149995;23;20176;-84
2023/10/11 01:45:12;;;;;;;2.70;1.70;;;;;;;;;;6149383;23;20184;-85
2023/10/11 01:47:41;;;;;;;1.53;1.53;;;;;;;;;;6149927;23;20284;-85
2023/10/11 01:50:14;;;;;;;1.50;1.50;;;;;;;;;;6150162;23;20169;-85
2023/10/11 01:52:47;;;;;;;3.53;2.03;;;;;;;;;;6150028;23;20169;-83
2023/10/11 01:55:17;;;;;;;6.77;2.77;;;;;;;;;;6150474;23;20165;-84
2023/10/11 01:57:49;;;;;;;6.10;2.53;;;;;;;;;;6150203;23;20653;-84
2023/10/11 02:00:23;;;;;;;2.80;1.60;;;;;;;;;;6150848;23;20265;-83
2023/10/11 02:02:55;;;;;;;3.03;1.97;;;;;;;;;;6150936;23;20195;-85
2023/10/11 02:05:24;;;;;;;2.50;2.30;;;;;;;;;;6149456;23;20244;-83
2023/10/11 02:07:54;;;;;;;2.23;2.03;;;;;;;;;;6150176;23;20169;-84
2023/10/11 02:10:26;;;;;;;2.30;2.20;;;;;;;;;;6151099;23;20565;-86
2023/10/11 02:12:57;;;;;;;2.80;2.57;;;;;;;;;;6148868;23;20168;-83
2023/10/11 02:15:28;;;;;;;2.13;2.03;;;;;;;;;;6149426;23;20196;-83
2023/10/11 02:17:56;;;;;;;2.67;2.13;;;;;;;;;;6149296;23;20169;-84
2023/10/11 02:20:25;;;;;;;7.13;2.37;;;;;;;;;;6148876;23;20224;-85
2023/10/11 02:23:00;;;;;;;2.47;2.27;;;;;;;;;;6149186;23;20191;-85
2023/10/11 02:25:30;;;;;;;1.50;1.40;;;;;;;;;;6150815;23;20171;-84
2023/10/11 02:28:06;;;;;;;1.40;1.40;;;;;;;;;;6149187;23;20172;-84
2023/10/11 02:30:38;;;;;;;1.87;1.77;;;;;;;;;;6150904;23;20218;-85
2023/10/11 02:33:11;;;;;;;4.33;2.20;;;;;;;;;;6149070;23;20168;-86
2023/10/11 02:35:53;;;;;;;1.90;1.80;;;;;;;;;;6148303;23;20256;-85
2023/10/11 02:38:22;;;;;;;1.80;1.70;;;;;;;;;;6151291;23;20218;-84
2023/10/11 02:40:55;;;;;;;5.63;1.97;;;;;;;;;;6148633;23;20231;-84
2023/10/11 02:43:22;;;;;;;2.57;2.00;;;;;;;;;;6149001;23;20177;-84
2023/10/11 02:45:50;;;;;;;6.20;2.23;;;;;;;;;;6149069;23;20165;-84
2023/10/11 02:48:19;;;;;;;3.63;2.00;;;;;;;;;;6149619;23;20642;-84
2023/10/11 02:50:54;;;;;;;2.00;1.87;;;;;;;;;;6149231;23;20172;-84
2023/10/11 02:53:25;;;;;;;6.47;1.97;;;;;;;;;;6149898;23;20176;-84
2023/10/11 02:55:59;;;;;;;2.10;2.00;;;;;;;;;;6150091;23;20184;-84
2023/10/11 02:58:29;;;;;;;1.97;1.87;;;;;;;;;;6151730;23;20306;-85
2023/10/11 03:01:00;;;;;;;2.00;1.90;;;;;;;;;;6149412;23;20224;-84
2023/10/11 03:03:31;;;;;;;2.60;1.73;;;;;;;;;;6149421;23;20168;-83
2023/10/11 03:06:01;;;;;;;1.60;1.50;;;;;;;;;;6153614;23;20433;-83
2023/10/11 03:08:30;;;;;;;3.03;2.00;;;;;;;;;;6155328;23;20179;-85
2023/10/11 03:10:58;;;;;;;1.40;1.40;;;;;;;;;;6153696;23;20185;-84
2023/10/11 03:13:30;;;;;;;1.90;1.80;;;;;;;;;;6150905;23;20243;-84
2023/10/11 03:16:11;;;;;;;3.80;2.23;;;;;;;;;;6152125;23;20173;-84
2023/10/11 03:18:40;;;;;;;2.37;2.17;;;;;;;;;;6150243;23;20184;-84
2023/10/11 03:21:16;;;;;;;8.30;3.03;;;;;;;;;;6158975;23;20223;-83
2023/10/11 03:23:47;;;;;;;2.53;2.20;;;;;;;;;;6151405;23;20641;-84
2023/10/11 03:26:22;;;;;;;2.53;2.07;;;;;;;;;;6150824;23;20169;-85
2023/10/11 03:28:57;;;;;;;2.43;1.80;;;;;;;;;;6155125;23;20239;-85
2023/10/11 03:31:27;;;;;;;4.50;1.83;;;;;;;;;;6161723;23;20182;-83
2023/10/11 03:33:56;;;;;;;2.57;1.93;;;;;;;;;;6156054;23;20164;-83
2023/10/11 03:36:31;;;;;;;2.37;2.17;;;;;;;;;;6151422;23;20169;-84
2023/10/11 03:39:08;;;;;;;2.77;1.80;;;;;;;;;;6154094;23;20169;-82
2023/10/11 03:41:36;;;;;;;2.50;2.27;;;;;;;;;;6159949;23;20196;-85
2023/10/11 03:44:17;;;;;;;5.87;2.53;;;;;;;;;;6166632;23;20168;-84
2023/10/11 03:46:47;;;;;;;2.43;2.33;;;;;;;;;;6170396;23;20175;-83
2023/10/11 03:52:04;;;;;;;4.73;1.30;;;;;;;;;;6165809;23;20207;-84
2023/10/11 03:54:36;;;;;;;2.00;2.00;;;;;;;;;;6169916;23;20176;-84
2023/10/11 03:57:10;;;;;;;3.93;1.80;;;;;;;;;;6170912;23;20192;-84
2023/10/11 03:59:47;;;;;;;2.53;1.77;;;;;;;;;;6176713;23;20184;-84
2023/10/11 04:02:17;;;;;;;14.27;3.63;;;;;;;;;;6176041;23;20236;-84
2023/10/11 04:04:49;;;;;;;3.07;2.80;;;;;;;;;;6175512;23;20181;-84
2023/10/11 04:07:22;;;;;;;2.07;1.97;;;;;;;;;;6177124;23;20160;-86
2023/10/11 04:10:04;;;;;;;2.57;2.37;;;;;;;;;;6176675;23;20229;-84
2023/10/11 04:12:42;;;;;;;4.13;2.30;;;;;;;;;;6175521;23;20305;-84
2023/10/11 04:15:24;;;;;;;2.73;2.53;;;;;;;;;;6162346;23;20171;-84
2023/10/11 04:17:55;;;;;;;3.33;2.27;;;;;;;;;;6153443;23;20180;-84
2023/10/11 04:20:30;;;;;;;3.90;2.00;;;;;;;;;;6152419;23;20200;-83
2023/10/11 04:23:07;;;;;;;3.63;3.27;;;;;;;;;;6154480;23;20160;-84
2023/10/11 04:25:37;;;;;;;2.70;2.37;;;;;;;;;;6150995;23;20218;-84
2023/10/11 04:28:05;;;;;;;5.40;2.90;;;;;;;;;;6152536;23;20165;-84
2023/10/11 04:30:41;;;;;;;2.70;2.50;;;;;;;;;;6154942;23;20575;-84
2023/10/11 04:33:12;;;;;;;5.10;1.90;;;;;;;;;;6152381;23;20263;-86
2023/10/11 04:35:42;;;;;;;2.33;2.13;;;;;;;;;;6150903;23;20185;-86
2023/10/11 04:38:12;;;;;;;5.07;2.00;;;;;;;;;;6151987;23;20501;-84
2023/10/11 04:40:47;;;;;;;6.37;2.57;;;;;;;;;;6150362;23;20201;-85
2023/10/11 04:43:25;;;;;;;2.20;2.10;;;;;;;;;;6150292;23;20164;-84
2023/10/11 04:45:55;;;;;;;3.10;2.20;;;;;;;;;;6152052;23;20195;-84
2023/10/11 04:48:36;;;;;;;4.50;2.60;;;;;;;;;;6150446;23;20364;-82
2023/10/11 04:51:21;;;;;;;3.93;2.57;;;;;;;;;;6148838;23;20173;-84
2023/10/11 04:53:54;;;;;;;3.73;3.23;;;;;;;;;;6148513;22;20548;-83
2023/10/11 04:59:27;;;;;;;3.00;2.40;;;;;;;;;;6155459;23;20246;-82
2023/10/11 05:01:58;;;;;;;2.53;2.40;;;;;;;;;;6153245;23;20626;-85
2023/10/11 05:04:32;;;;;;;2.90;2.70;;;;;;;;;;6147295;23;20173;-84
2023/10/11 05:07:07;;;;;;;2.87;2.47;;;;;;;;;;6148776;23;20173;-84
2023/10/11 05:09:40;;;;;;;2.00;1.83;;;;;;;;;;6148728;23;20167;-84
2023/10/11 05:12:12;;;;;;;4.20;2.77;;;;;;;;;;6149903;23;20168;-84
2023/10/11 05:23:52;;;;;;;3.17;2.83;;;;;;;;;;5111404;27;20326;-82
2023/10/11 05:29:09;;;;;;;2.60;2.20;;;;;;;;;;5110178;28;21105;-83
2023/10/11 05:32:00;;;;;;;2.97;2.20;;;;;;;;;;5098939;28;20229;-83
2023/10/11 05:34:49;;;;;;;7.07;3.00;;;;;;;;;;5091714;28;20223;-82
2023/10/11 05:51:27;;;;;;;2.63;2.43;;;;;;;;;;5111935;28;20247;-82
2023/10/11 05:54:02;;;;;;;2.60;2.43;;;;;;;;;;5109891;28;20201;-84
2023/10/11 05:56:38;;;;;;;7.40;3.73;;;;;;;;;;5108324;28;20200;-84
2023/10/11 05:59:10;;;;;;;4.00;3.40;;;;;;;;;;5108452;28;20189;-83
2023/10/11 06:01:37;;;;;;;4.87;2.87;;;;;;;;;;5102586;28;20233;-83
2023/10/11 06:04:08;;;;;;;3.83;3.53;;;;;;;;;;5088040;28;20206;-82
2023/10/11 06:06:39;;;;;;;7.68;2.72;;;;;;;;;;5088353;28;20272;-83
2023/10/11 06:09:16;;;;;;;2.78;2.55;;;;;;;;;;5087394;28;20197;-83
2023/10/11 06:11:48;;;;;;;2.97;2.85;;;;;;;;;;5087696;28;20202;-84
2023/10/11 06:14:16;;;;;;;3.03;2.83;;;;;;;;;;5088321;28;20218;-82
2023/10/11 06:16:49;;;;;;;5.65;3.15;;;;;;;;;;5088028;28;20206;-83
2023/10/11 06:19:25;;;;;;;11.77;3.85;;;;;;;;;;5087659;28;20205;-82
2023/10/11 06:21:58;;;;;;;3.88;3.58;;;;;;;;;;5088876;28;20678;-85
2023/10/11 06:24:27;;;;;;;7.13;3.58;;;;;;;;;;5089150;28;20198;-85
2023/10/11 06:26:56;;;;;;;5.90;3.60;;;;;;;;;;5088726;28;20256;-81
2023/10/11 06:29:28;;;;;;;7.07;3.13;;;;;;;;;;5087996;28;20206;-82
2023/10/11 06:31:55;;;;;;;6.22;3.65;;;;;;;;;;5084302;28;20203;-83
2023/10/11 06:34:27;;;;;;;3.60;3.40;;;;;;;;;;5066491;28;20222;-84
2023/10/11 06:36:57;;;;;;;3.13;2.88;;;;;;;;;;5074412;28;20210;-83
2023/10/11 06:42:21;;;;;;;8.15;3.85;;;;;;;;;;5085627;28;20225;-83
2023/10/11 06:44:49;;;;;;;3.67;3.38;;;;;;;;;;5082376;28;20203;-83
2023/10/11 06:47:19;;;;;;;5.25;3.50;;;;;;;;;;5074578;28;20221;-83
2023/10/11 06:49:54;;;;;;;3.95;3.60;;;;;;;;;;5074783;28;20667;-83
2023/10/11 06:52:26;;;;;;;3.83;3.53;;;;;;;;;;5075454;28;20194;-82
2023/10/11 06:57:40;;;;;;;6.68;4.05;;;;;;;;;;5075472;28;20256;-83
2023/10/11 07:00:21;;;;;;;4.05;3.63;;;;;;;;;;5076186;28;20195;-83
2023/10/11 07:02:52;;;;;;;4.78;3.88;;;;;;;;;;5074209;28;20256;-83
2023/10/11 07:05:25;;;;;;;9.02;4.60;;;;;;;;;;5074614;28;20194;-84
2023/10/11 07:07:55;;;;;;;3.42;3.22;;;;;;;;;;5072795;28;20211;-85
2023/10/11 07:10:32;;;;;;;8.38;4.30;;;;;;;;;;5079514;28;20675;-84
2023/10/11 07:13:04;;;;;;;6.18;4.15;;;;;;;;;;5082441;28;20210;-83
2023/10/11 07:15:37;;;;;;;20.90;4.47;;;;;;;;;;5091161;28;20209;-83
2023/10/11 07:18:10;;;;;;;14.38;3.15;;;;;;;;;;5069385;28;20201;-83
2023/10/11 07:20:49;;;;;;;4.05;3.42;;;;;;;;;;5076006;28;20199;-81
2023/10/11 07:23:21;;;;;;;7.30;3.63;;;;;;;;;;5076819;28;20249;-83
2023/10/11 07:25:59;;;;;;;8.25;3.65;;;;;;;;;;5075972;28;20278;-82
2023/10/11 07:28:35;;;;;;;4.40;3.78;;;;;;;;;;5075081;28;20230;-84
2023/10/11 07:31:04;;;;;;;2.58;2.47;;;;;;;;;;5074516;28;20202;-83
2023/10/11 07:33:36;;;;;;;5.32;2.22;;;;;;;;;;5075559;28;20294;-84
2023/10/11 07:36:11;;;;;;;3.47;2.00;;;;;;;;;;5075990;28;20203;-83
2023/10/11 07:38:43;;;;;;;2.08;1.98;;;;;;;;;;5075238;28;20207;-83
2023/10/11 07:41:18;;;;;;;2.70;2.50;;;;;;;;;;5073593;28;20647;-83
2023/10/11 07:43:47;;;;;;;2.45;2.35;;;;;;;;;;5072987;28;20617;-82
2023/10/11 07:46:17;;;;;;;2.08;1.95;;;;;;;;;;5073267;28;20206;-83
2023/10/11 07:48:46;;;;;;;5.88;2.75;;;;;;;;;;5056993;28;20208;-83
2023/10/11 07:51:16;;;;;;;4.10;2.60;;;;;;;;;;5057691;28;20191;-83
2023/10/11 07:53:46;;;;;;;2.17;2.08;;;;;;;;;;5058953;28;20204;-82
2023/10/11 07:56:20;;;;;;;2.83;2.35;;;;;;;;;;5058988;28;20213;-82
2023/10/11 07:58:51;;;;;;;4.32;2.47;;;;;;;;;;5058635;28;20259;-84
2023/10/11 08:01:30;;;;;;;3.35;2.88;;;;;;;;;;5057406;28;20269;-83
2023/10/11 08:04:01;;;;;;;2.38;2.10;;;;;;;;;;5055076;28;20227;-83
2023/10/11 08:06:31;;;;;;;3.22;2.88;;;;;;;;;;5058230;28;20259;-83
2023/10/11 08:09:01;;;;;;;3.53;2.00;;;;;;;;;;5059101;28;20196;-83
2023/10/11 08:11:36;;;;;;;3.50;3.28;;;;;;;;;;5059390;28;20253;-83
2023/10/11 08:14:14;;;;;;;5.78;2.75;;;;;;;;;;5059598;28;20623;-83
2023/10/11 08:16:42;;;;;;;6.38;2.75;;;;;;;;;;5056114;28;20648;-82
2023/10/11 08:19:11;;;;;;;2.78;2.42;;;;;;;;;;5061189;28;20663;-86
2023/10/11 08:21:50;;;;;;;2.03;1.92;;;;;;;;;;5062004;28;20317;-84
2023/10/11 08:24:27;;;;;;;11.25;3.17;;;;;;;;;;5061884;28;20238;-83
2023/10/11 08:27:08;;;;;;;4.50;2.83;;;;;;;;;;5061032;28;20191;-83
2023/10/11 08:29:43;;;;;;;2.22;2.05;;;;;;;;;;5060338;28;20646;-85
2023/10/11 08:32:13;;;;;;;2.20;2.10;;;;;;;;;;5057902;28;20628;-84
2023/10/11 08:34:46;;;;;;;2.47;2.28;;;;;;;;;;5061001;28;20264;-84
2023/10/11 08:37:14;;;;;;;2.85;2.17;;;;;;;;;;5056626;28;20196;-83
2023/10/11 08:39:44;;;;;;;2.58;2.40;;;;;;;;;;5053512;28;20202;-84
2023/10/11 08:42:16;;;;;;;3.63;2.00;;;;;;;;;;5053956;28;20253;-84
2023/10/11 08:44:49;;;;;;;2.90;2.70;;;;;;;;;;5053615;28;20199;-85
2023/10/11 08:47:19;;;;;;;3.42;2.75;;;;;;;;;;5053990;28;20661;-84
2023/10/11 08:49:50;;;;;;;2.90;2.75;;;;;;;;;;5053579;28;20203;-83
2023/10/11 08:52:20;;;;;;;3.97;2.95;;;;;;;;;;5052409;28;20204;-83
2023/10/11 08:54:52;;;;;;;2.25;2.05;;;;;;;;;;5053498;28;20196;-83
2023/10/11 08:57:25;;;;;;;5.28;2.53;;;;;;;;;;5052237;28;20302;-84
2023/10/11 08:59:58;;;;;;;3.65;3.08;;;;;;;;;;5050725;28;20319;-82
2023/10/11 09:02:29;;;;;;;3.95;2.42;;;;;;;;;;5053026;28;20235;-85
2023/10/11 09:05:06;;;;;;;3.30;2.50;;;;;;;;;;5051937;28;20413;-84
2023/10/11 09:07:39;;;;;;;3.30;2.83;;;;;;;;;;5033411;28;20333;-86
2023/10/11 09:10:25;;;;;;;2.90;2.53;;;;;;;;;;5052348;28;20283;-85
2023/10/11 09:12:57;;;;;;;17.20;2.75;;;;;;;;;;5050933;28;20207;-85
2023/10/11 09:15:42;;;;;;;7.75;1.92;;;;;;;;;;5051271;28;20698;-84
2023/10/11 09:18:15;;;;;;;3.25;2.42;;;;;;;;;;5051670;28;20210;-84
2023/10/11 09:20:49;;;;;;;3.15;2.15;;;;;;;;;;5051491;28;20226;-84
2023/10/11 09:23:21;;;;;;;2.40;2.20;;;;;;;;;;5051238;28;20230;-84
2023/10/11 09:25:58;;;;;;;4.97;2.33;;;;;;;;;;5051480;28;20192;-83
2023/10/11 09:28:26;;;;;;;2.53;2.30;;;;;;;;;;5052154;28;20215;-83
2023/10/11 09:31:11;;;;;;;5.75;2.50;;;;;;;;;;5051093;28;20207;-83
2023/10/11 09:33:41;;;;;;;2.38;2.22;;;;;;;;;;5051399;28;20199;-84
2023/10/11 09:36:14;;;;;;;4.28;3.50;;;;;;;;;;5050587;28;20195;-84
2023/10/11 09:38:42;;;;;;;7.32;3.03;;;;;;;;;;5053505;28;20198;-83
2023/10/11 09:41:13;;;;;;;4.55;2.70;;;;;;;;;;5051167;28;20536;-84
2023/10/11 09:43:45;;;;;;;3.00;2.22;;;;;;;;;;5050672;28;20306;-84
2023/10/11 09:46:18;;;;;;;3.17;2.10;;;;;;;;;;5050453;28;20265;-82
2023/10/11 09:48:48;;;;;;;2.03;1.92;;;;;;;;;;5050916;28;20672;-83
2023/10/11 09:51:17;;;;;;;2.95;1.90;;;;;;;;;;5053761;28;20188;-84
2023/10/11 09:53:49;;;;;;;9.13;2.55;;;;;;;;;;5052613;28;20191;-85
2023/10/11 09:56:30;;;;;;;2.97;2.45;;;;;;;;;;5053405;28;20204;-86
2023/10/11 09:59:07;;;;;;;2.92;2.67;;;;;;;;;;5052948;28;20195;-87
2023/10/11 10:01:48;;;;;;;2.45;2.28;;;;;;;;;;5050757;28;20223;-84
2023/10/11 10:04:20;;;;;;;2.28;2.08;;;;;;;;;;5049176;28;20235;-83
2023/10/11 10:07:08;;;;;;;2.03;1.85;;;;;;;;;;5051122;28;20279;-84
2023/10/11 10:09:52;;;;;;;2.30;2.10;;;;;;;;;;5054064;28;20211;-84
2023/10/11 10:12:28;;;;;;;2.25;2.05;;;;;;;;;;5055119;28;20249;-83
2023/10/11 10:15:20;;;;;;;2.47;2.28;;;;;;;;;;5046118;28;20265;-83
2023/10/11 10:18:06;;;;;;;2.60;2.08;;;;;;;;;;5054129;28;20269;-85
2023/10/11 10:20:43;;;;;;;2.85;2.63;;;;;;;;;;5055421;28;20274;-84
2023/10/11 10:23:29;;;;;;;2.30;2.20;;;;;;;;;;5055580;28;20684;-85
2023/10/11 10:26:28;;;;;;;2.47;2.08;;;;;;;;;;5055032;28;20754;-83
2023/10/11 10:28:57;;;;;;;5.07;3.03;;;;;;;;;;4981507;28;20211;-84
2023/10/11 10:31:26;;;;;;;2.28;2.17;;;;;;;;;;5054922;28;20303;-85
2023/10/11 10:34:13;;;;;;;1.83;1.73;;;;;;;;;;5054756;28;20206;-84
2023/10/11 10:36:48;;;;;;;2.65;2.13;;;;;;;;;;5054751;28;20401;-85
2023/10/11 10:39:36;;;;;;;2.72;2.53;;;;;;;;;;5062821;28;20210;-85
2023/10/11 10:42:19;;;;;;;4.60;2.15;;;;;;;;;;5064950;28;20215;-84
2023/10/11 10:44:54;;;;;;;3.55;2.63;;;;;;;;;;5055711;28;20246;-84
2023/10/11 10:47:28;;;;;;;1.70;1.60;;;;;;;;;;5055763;28;20222;-84
2023/10/11 10:50:06;;;;;;;3.35;2.22;;;;;;;;;;5056537;28;20297;-86
2023/10/11 10:52:44;;;;;;;2.75;2.20;;;;;;;;;;5054721;28;20234;-85
2023/10/11 10:55:14;;;;;;;2.50;2.30;;;;;;;;;;5055820;28;20195;-85
2023/10/11 10:57:42;;;;;;;2.28;2.08;;;;;;;;;;5056546;28;20213;-84
2023/10/11 11:00:20;;;;;;;2.88;2.28;;;;;;;;;;5058768;28;20207;-83
2023/10/11 11:02:57;;;;;;;1.98;1.88;;;;;;;;;;5062040;28;20227;-85
2023/10/11 11:05:25;;;;;;;2.33;2.22;;;;;;;;;;5054725;28;20192;-84
2023/10/11 11:07:58;;;;;;;2.38;1.83;;;;;;;;;;5055281;28;20314;-84
2023/10/11 11:10:30;;;;;;;2.83;1.88;;;;;;;;;;5057384;28;20561;-84
2023/10/11 11:13:00;;;;;;;2.20;1.95;;;;;;;;;;5053215;28;20203;-84
2023/10/11 11:15:38;;;;;;;1.95;1.83;;;;;;;;;;5054505;28;20249;-85
2023/10/11 11:18:11;;;;;;;2.55;1.88;;;;;;;;;;5053992;28;20271;-85
2023/10/11 11:20:51;;;;;;;1.85;1.75;;;;;;;;;;5054289;28;20672;-83
2023/10/11 11:23:31;;;;;;;1.92;1.83;;;;;;;;;;5054467;28;20313;-84
2023/10/11 11:26:04;;;;;;;1.85;1.77;;;;;;;;;;5055824;28;20238;-84
2023/10/11 11:28:39;;;;;;;2.00;1.88;;;;;;;;;;5055207;28;20295;-84
2023/10/11 11:31:10;;;;;;;2.13;2.00;;;;;;;;;;5054258;28;20187;-84
2023/10/11 11:33:47;;;;;;;7.38;2.22;;;;;;;;;;5052807;28;20203;-84
2023/10/11 11:36:22;;;;;;;1.60;1.50;;;;;;;;;;5053911;28;20202;-84
2023/10/11 11:38:55;;;;;;;2.65;2.45;;;;;;;;;;5053519;28;20631;-84
2023/10/11 11:41:25;;;;;;;2.10;2.00;;;;;;;;;;5054143;28;20775;-84
2023/10/11 11:43:56;;;;;;;2.03;1.92;;;;;;;;;;5054117;28;20230;-84
2023/10/11 11:46:29;;;;;;;6.25;2.10;;;;;;;;;;5054764;28;20207;-86
2023/10/11 11:48:59;;;;;;;2.03;1.92;;;;;;;;;;5052723;28;20257;-84
2023/10/11 11:51:26;;;;;;;3.58;1.42;;;;;;;;;;5053004;28;20223;-85
2023/10/11 11:53:59;;;;;;;1.60;1.60;;;;;;;;;;5062684;28;20207;-84
2023/10/11 11:56:26;;;;;;;1.80;1.73;;;;;;;;;;5054391;28;20207;-84
2023/10/11 11:59:00;;;;;;;2.05;1.85;;;;;;;;;;5056491;28;20215;-84
2023/10/11 12:01:29;;;;;;;3.35;1.67;;;;;;;;;;5054236;28;20305;-85
2023/10/11 12:03:59;;;;;;;4.53;1.67;;;;;;;;;;5054051;28;20230;-84
2023/10/11 12:06:34;;;;;;;1.73;1.65;;;;;;;;;;5057141;28;20579;-83
2023/10/11 12:09:06;;;;;;;2.15;1.70;;;;;;;;;;5059227;28;20242;-84
2023/10/11 12:11:37;;;;;;;1.70;1.60;;;;;;;;;;5055158;28;20287;-84
2023/10/11 12:14:10;;;;;;;3.35;1.55;;;;;;;;;;5053367;28;20191;-84
2023/10/11 12:16:42;;;;;;;1.83;1.73;;;;;;;;;;5053175;28;20207;-85
2023/10/11 12:19:11;;;;;;;1.88;1.77;;;;;;;;;;5052707;28;20208;-83
2023/10/11 12:21:39;;;;;;;1.45;1.30;;;;;;;;;;5054223;28;20242;-86
2023/10/11 12:24:12;;;;;;;1.42;1.33;;;;;;;;;;5053966;28;20262;-85
2023/10/11 12:26:43;;;;;;;1.70;1.60;;;;;;;;;;5052989;28;20204;-85
2023/10/11 12:29:12;;;;;;;10.18;1.70;;;;;;;;;;5054767;28;20207;-87
2023/10/11 12:31:44;;;;;;;3.00;2.03;;;;;;;;;;5054368;28;20195;-86
2023/10/11 12:34:11;;;;;;;1.83;1.70;;;;;;;;;;5053661;28;20447;-86
2023/10/11 12:36:41;;;;;;;2.08;1.98;;;;;;;;;;5059411;28;20222;-86
2023/10/11 12:39:24;;;;;;;4.93;1.45;;;;;;;;;;5084006;22;20236;-87
2023/10/11 12:41:59;;;;;;;1.52;1.42;;;;;;;;;;5024921;28;20215;-87
2023/10/11 12:44:28;;;;;;;2.47;1.75;;;;;;;;;;5015525;28;20260;-86
2023/10/11 12:46:58;;;;;;;1.80;1.70;;;;;;;;;;5013947;28;20193;-86
2023/10/11 12:49:28;;;;;;;1.20;1.20;;;;;;;;;;5013572;28;20197;-85
2023/10/11 12:51:57;;;;;;;4.53;1.25;;;;;;;;;;5011261;28;20278;-86
2023/10/11 12:54:41;;;;;;;1.40;1.27;;;;;;;;;;5016134;28;20231;-90
2023/10/11 12:57:09;;;;;;;2.72;1.50;;;;;;;;;;5014162;28;20645;-86
2023/10/11 12:59:38;;;;;;;2.30;1.20;;;;;;;;;;5014455;28;20646;-86
2023/10/11 13:02:08;;;;;;;1.95;1.85;;;;;;;;;;5013376;28;20232;-86
2023/10/11 13:04:41;;;;;;;1.88;1.77;;;;;;;;;;5014328;28;20243;-86
2023/10/11 13:07:13;;;;;;;1.30;1.20;;;;;;;;;;5016266;28;20219;-84
2023/10/11 13:09:42;;;;;;;1.90;1.80;;;;;;;;;;5014371;28;20670;-84
2023/10/11 13:12:17;;;;;;;1.45;1.35;;;;;;;;;;5011637;28;20323;-86
2023/10/11 13:14:45;;;;;;;1.88;1.50;;;;;;;;;;5014119;28;20732;-86
2023/10/11 13:17:15;;;;;;;1.27;1.20;;;;;;;;;;5014157;28;20228;-86
2023/10/11 13:19:46;;;;;;;4.32;1.80;;;;;;;;;;5017009;28;20217;-86
2023/10/11 13:22:16;;;;;;;1.75;1.60;;;;;;;;;;5023043;28;20240;-85
2023/10/11 13:24:47;;;;;;;1.65;1.60;;;;;;;;;;5031460;28;20292;-86
2023/10/11 13:27:22;;;;;;;1.65;1.52;;;;;;;;;;5031563;28;20368;-86
2023/10/11 13:29:51;;;;;;;1.10;1.10;;;;;;;;;;5016723;28;20247;-86
2023/10/11 13:32:23;;;;;;;1.48;1.40;;;;;;;;;;5007729;28;20238;-85
2023/10/11 13:34:53;;;;;;;1.13;1.13;;;;;;;;;;5013402;28;20255;-85
2023/10/11 13:37:22;;;;;;;1.23;1.23;;;;;;;;;;5013188;28;20511;-85
2023/10/11 13:39:54;;;;;;;1.23;1.23;;;;;;;;;;5011318;28;20240;-85
2023/10/11 13:42:23;;;;;;;1.20;1.20;;;;;;;;;;5011670;28;20236;-85
2023/10/11 13:44:54;;;;;;;1.52;1.48;;;;;;;;;;5015463;28;20240;-86
2023/10/11 13:47:21;;;;;;;1.90;1.80;;;;;;;;;;5015157;28;20755;-85
2023/10/11 13:49:52;;;;;;;1.60;1.50;;;;;;;;;;5015081;28;20717;-85
2023/10/11 13:52:23;;;;;;;1.58;1.40;;;;;;;;;;5014284;28;20254;-86
2023/10/11 13:55:00;;;;;;;1.90;1.60;;;;;;;;;;5016854;28;20221;-86
2023/10/11 13:57:30;;;;;;;1.95;1.40;;;;;;;;;;5014849;28;20226;-84
2023/10/11 14:00:36;;;;;;;2.80;1.23;;;;;;;;;;5013882;28;20299;-85
2023/10/11 14:02:50;;;;;;;1.25;1.25;;;;;;;;;;5014311;28;20240;-85
2023/10/11 14:05:19;;;;;;;1.60;1.60;;;;;;;;;;5015639;28;20228;-85
2023/10/11 14:07:51;;;;;;;1.23;1.23;;;;;;;;;;5014464;28;20221;-85
2023/10/11 14:10:26;;;;;;;1.48;1.38;;;;;;;;;;5015039;28;20287;-85
2023/10/11 14:12:56;;;;;;;1.17;1.17;;;;;;;;;;5015339;28;20224;-85
2023/10/11 14:15:29;;;;;;;1.30;1.20;;;;;;;;;;5014324;28;20297;-85
2023/10/11 14:17:57;;;;;;;1.42;1.33;;;;;;;;;;5018055;28;20236;-85
2023/10/11 14:20:30;;;;;;;1.35;1.27;;;;;;;;;;5025429;28;20338;-86
2023/10/11 14:22:59;;;;;;;1.52;1.33;;;;;;;;;;5030856;28;20239;-84
2023/10/11 14:25:30;;;;;;;3.72;1.20;;;;;;;;;;5030703;28;20240;-85
2023/10/11 14:27:57;;;;;;;1.33;1.33;;;;;;;;;;5029434;28;20224;-85
2023/10/11 14:30:24;;;;;;;0.98;0.98;;;;;;;;;;5024486;28;20713;-86
2023/10/11 14:32:53;;;;;;;1.60;1.50;;;;;;;;;;5026224;28;20219;-85
2023/10/11 14:35:24;;;;;;;8.02;1.48;;;;;;;;;;5036024;28;20223;-86
2023/10/11 14:37:53;;;;;;;2.42;1.27;;;;;;;;;;5033581;28;20272;-85
2023/10/11 14:40:24;;;;;;;1.58;1.48;;;;;;;;;;5035469;28;20231;-86
2023/10/11 14:42:56;;;;;;;1.30;1.30;;;;;;;;;;5038107;28;20231;-85
2023/10/11 14:45:23;;;;;;;1.45;1.35;;;;;;;;;;5114385;22;20241;-85
2023/10/11 14:47:55;;;;;;;3.78;0.90;;;;;;;;;;5058222;28;20259;-85
2023/10/11 14:50:33;;;;;;;0.93;0.93;;;;;;;;;;5057196;28;20254;-86
2023/10/11 14:53:13;;;;;;;;;;;;;;;;;;;;;
2023/10/11 14:55:43;;;;;;;3.42;1.58;;;;;;;;;;5054916;28;20210;-85
2023/10/11 14:58:14;;;;;;;1.45;1.05;;;;;;;;;;5055423;28;20216;-85
2023/10/11 15:00:45;;;;;;;1.40;1.30;;;;;;;;;;5043418;28;20292;-86
2023/10/11 15:03:13;;;;;;;0.90;0.90;;;;;;;;;;5023043;28;20243;-85
2023/10/11 15:05:44;;;;;;;2.42;1.40;;;;;;;;;;5020135;28;20255;-89
2023/10/11 15:08:15;;;;;;;3.00;1.30;;;;;;;;;;5013635;28;20214;-88
2023/10/11 15:10:45;;;;;;;8.68;1.42;;;;;;;;;;5014174;28;20726;-85
2023/10/11 15:13:15;;;;;;;1.30;1.30;;;;;;;;;;5013767;28;20707;-86
2023/10/11 15:15:42;;;;;;;1.42;1.33;;;;;;;;;;5010878;28;20723;-87
2023/10/11 15:18:30;;;;;;;1.55;1.45;;;;;;;;;;5014235;28;20312;-86
2023/10/11 15:21:04;;;;;;;1.27;1.27;;;;;;;;;;5013301;28;20232;-86
2023/10/11 15:23:33;;;;;;;1.50;1.50;;;;;;;;;;5015992;28;20250;-86
2023/10/11 15:26:04;;;;;;;1.52;1.42;;;;;;;;;;5016729;28;20265;-86
2023/10/11 15:28:33;;;;;;;1.30;1.30;;;;;;;;;;5016179;28;20340;-85
2023/10/11 15:31:02;;;;;;;1.60;1.50;;;;;;;;;;5016752;28;20227;-85
2023/10/11 15:33:31;;;;;;;1.55;1.45;;;;;;;;;;5014451;28;20262;-85
2023/10/11 15:35:59;;;;;;;3.95;1.50;;;;;;;;;;5015469;28;20298;-85
2023/10/11 15:38:27;;;;;;;13.00;1.75;;;;;;;;;;5014946;28;20224;-85
2023/10/11 15:41:02;;;;;;;1.33;1.30;;;;;;;;;;5015710;28;20243;-85
2023/10/11 15:43:34;;;;;;;1.30;1.20;;;;;;;;;;5016657;28;20318;-84
2023/10/11 15:46:10;;;;;;;1.75;1.58;;;;;;;;;;5012508;28;20230;-86
2023/10/11 15:48:55;;;;;;;1.45;1.35;;;;;;;;;;5013966;28;20230;-86
2023/10/11 15:51:26;;;;;;;4.70;1.60;;;;;;;;;;5012404;28;20776;-86
2023/10/11 15:53:56;;;;;;;1.92;1.83;;;;;;;;;;5014770;28;20270;-87